Time;durP1;ratioP1;P1;durP2;ratioP2;P2;SDS_P1;SDS_P2;PMS_P1;PMS_P2;Temp;Humidity;BMP_temperature;BMP_pressure;BME280_temperature;BME280_humidity;BME280_pressure;Samples;Min_cycle;Max_cycle;Signal;HPM_P1;HPM_P2
2021/12/06 00:01:02;;;;;;;20.57;16.50;;;4.20;99.90;;;;;;6265978;28;20848;-63
2021/12/06 00:04:08;;;;;;;19.57;17.30;;;4.20;99.90;;;;;;6262155;28;20545;-64
2021/12/06 00:07:16;;;;;;;18.27;16.37;;;4.30;99.90;;;;;;6266941;28;20477;-64
2021/12/06 00:10:20;;;;;;;20.37;16.27;;;4.30;99.90;;;;;;6268697;28;20524;-64
2021/12/06 00:13:24;;;;;;;17.77;15.40;;;4.20;99.90;;;;;;6257530;28;20470;-64
2021/12/06 00:16:27;;;;;;;18.87;16.67;;;4.20;99.90;;;;;;6275855;28;20482;-63
2021/12/06 00:19:30;;;;;;;19.70;17.00;;;4.30;99.90;;;;;;6258223;28;20486;-63
2021/12/06 00:22:35;;;;;;;18.03;16.13;;;4.30;99.90;;;;;;6253283;28;20474;-65
2021/12/06 00:25:39;;;;;;;21.30;16.00;;;4.30;99.90;;;;;;6253033;28;20463;-64
2021/12/06 00:28:45;;;;;;;22.00;17.23;;;4.40;99.90;;;;;;6252910;28;20475;-64
2021/12/06 00:31:48;;;;;;;18.70;16.70;;;4.40;99.90;;;;;;6252798;28;20479;-63
2021/12/06 00:34:52;;;;;;;21.63;16.10;;;4.40;99.90;;;;;;6252814;28;20494;-63
2021/12/06 00:37:58;;;;;;;19.20;16.13;;;4.40;99.90;;;;;;6253171;28;20554;-64
2021/12/06 00:41:04;;;;;;;20.37;15.20;;;4.40;99.90;;;;;;6252826;28;20502;-63
2021/12/06 00:44:08;;;;;;;20.37;16.33;;;4.50;99.90;;;;;;6134191;28;20463;-65
2021/12/06 00:47:11;;;;;;;18.47;15.40;;;4.50;99.90;;;;;;6140600;28;20466;-64
2021/12/06 00:50:16;;;;;;;17.13;15.40;;;4.60;99.90;;;;;;6137422;28;20453;-64
2021/12/06 00:53:20;;;;;;;24.53;16.00;;;4.60;99.90;;;;;;6147465;28;20853;-64
2021/12/06 00:56:23;;;;;;;18.67;14.93;;;4.70;99.90;;;;;;6135046;28;20490;-64
2021/12/06 00:59:26;;;;;;;17.70;14.73;;;4.60;99.90;;;;;;6140821;28;20471;-64
2021/12/06 01:02:30;;;;;;;17.67;14.10;;;4.60;99.90;;;;;;6133744;28;20477;-63
2021/12/06 01:05:33;;;;;;;18.60;15.50;;;4.60;99.90;;;;;;6137110;28;20778;-64
2021/12/06 01:08:39;;;;;;;14.93;13.10;;;4.60;99.90;;;;;;6131387;28;20479;-63
2021/12/06 01:11:42;;;;;;;16.87;13.70;;;4.50;99.90;;;;;;6141225;28;20466;-63
2021/12/06 01:14:45;;;;;;;16.83;15.00;;;4.50;99.90;;;;;;6132455;28;20494;-63
2021/12/06 01:17:49;;;;;;;17.70;15.43;;;4.40;99.90;;;;;;6150850;28;20474;-63
2021/12/06 01:20:58;;;;;;;19.33;15.83;;;4.30;99.90;;;;;;6128261;28;20554;-63
2021/12/06 01:24:02;;;;;;;23.80;18.60;;;4.20;99.90;;;;;;6130873;28;20498;-63
2021/12/06 01:27:24;;;;;;;18.20;15.93;;;4.20;99.90;;;;;;6144445;28;20485;-63
2021/12/06 01:30:36;;;;;;;18.97;16.87;;;4.30;99.90;;;;;;6140624;28;20491;-63
2021/12/06 01:40:26;;;;;;;18.53;16.47;;;4.30;99.90;;;;;;6150664;28;20486;-63
2021/12/06 01:43:29;;;;;;;18.40;16.50;;;4.30;99.90;;;;;;6150907;28;20490;-63
2021/12/06 01:46:36;;;;;;;19.57;17.20;;;4.40;99.90;;;;;;6150754;28;20795;-63
2021/12/06 01:49:41;;;;;;;21.67;15.30;;;4.40;99.90;;;;;;6151023;28;20490;-63
2021/12/06 01:52:46;;;;;;;17.63;14.80;;;4.50;99.90;;;;;;6150583;28;21030;-65
2021/12/06 01:55:51;;;;;;;26.47;15.87;;;4.50;99.90;;;;;;6150310;28;20475;-64
2021/12/06 01:58:54;;;;;;;17.40;15.50;;;4.50;99.90;;;;;;6150934;28;20479;-64
2021/12/06 02:01:58;;;;;;;17.03;14.67;;;4.50;99.90;;;;;;6146320;28;20490;-62
2021/12/06 02:05:02;;;;;;;19.20;14.53;;;4.50;99.90;;;;;;6150867;28;20482;-61
2021/12/06 02:08:06;;;;;;;15.87;13.60;;;4.60;99.90;;;;;;6150583;28;20466;-62
2021/12/06 02:11:11;;;;;;;18.27;13.90;;;4.60;99.90;;;;;;6150940;28;20926;-63
2021/12/06 02:14:27;;;;;;;13.23;11.80;;;4.60;99.90;;;;;;6150551;28;20431;-63
2021/12/06 02:17:34;;;;;;;11.97;10.40;;;4.60;99.90;;;;;;6150512;28;20474;-63
2021/12/06 02:20:45;;;;;;;7.60;6.90;;;4.50;99.90;;;;;;6150239;28;20974;-62
2021/12/06 02:23:50;;;;;;;11.60;6.00;;;4.50;99.90;;;;;;6150776;28;20478;-65
2021/12/06 02:26:54;;;;;;;6.80;4.87;;;4.50;99.90;;;;;;6150909;28;20479;-64
2021/12/06 02:30:00;;;;;;;7.07;4.20;;;4.40;99.90;;;;;;6150319;28;20479;-64
2021/12/06 02:33:04;;;;;;;4.63;3.73;;;4.40;99.90;;;;;;6150356;28;21005;-64
2021/12/06 02:36:08;;;;;;;5.83;3.90;;;4.40;99.90;;;;;;6150162;28;20794;-65
2021/12/06 02:39:20;;;;;;;4.37;3.97;;;4.30;99.90;;;;;;6150425;28;20504;-64
2021/12/06 02:42:24;;;;;;;4.77;3.77;;;4.20;99.90;;;;;;6150399;28;20986;-65
2021/12/06 02:45:29;;;;;;;7.07;3.43;;;4.20;99.90;;;;;;6149724;28;20977;-65
2021/12/06 02:48:32;;;;;;;5.27;3.80;;;4.10;99.90;;;;;;6150537;28;20467;-65
2021/12/06 02:51:36;;;;;;;3.97;3.40;;;4.10;99.90;;;;;;6149640;28;20514;-66
2021/12/06 02:54:42;;;;;;;3.90;3.00;;;4.10;99.90;;;;;;6149827;28;20489;-64
2021/12/06 02:57:47;;;;;;;3.90;3.40;;;4.00;99.90;;;;;;6149406;28;20970;-65
2021/12/06 03:00:55;;;;;;;3.50;3.20;;;4.00;99.90;;;;;;6149979;28;20482;-66
2021/12/06 03:04:00;;;;;;;3.03;2.70;;;4.10;99.90;;;;;;6149748;28;20474;-65
2021/12/06 03:07:04;;;;;;;2.93;2.30;;;4.10;99.90;;;;;;6136213;28;20486;-66
2021/12/06 03:10:10;;;;;;;2.60;2.40;;;4.10;99.90;;;;;;6141554;28;20520;-63
2021/12/06 03:13:13;;;;;;;3.60;2.87;;;4.10;99.90;;;;;;6136847;28;20471;-64
2021/12/06 03:16:16;;;;;;;3.80;2.50;;;4.10;99.90;;;;;;6136839;28;20478;-63
2021/12/06 03:19:20;;;;;;;2.40;2.20;;;4.10;99.90;;;;;;6143833;28;20556;-65
2021/12/06 03:22:23;;;;;;;2.00;1.90;;;4.10;99.90;;;;;;6140010;28;20470;-64
2021/12/06 03:25:28;;;;;;;2.63;2.43;;;4.10;99.90;;;;;;6141987;28;20498;-63
2021/12/06 03:28:36;;;;;;;2.50;2.30;;;4.10;99.90;;;;;;6132663;28;20986;-63
2021/12/06 03:31:40;;;;;;;2.10;2.00;;;4.10;99.90;;;;;;6129634;28;20475;-64
2021/12/06 03:34:44;;;;;;;1.97;1.80;;;4.20;99.90;;;;;;6129671;28;20849;-65
2021/12/06 03:37:47;;;;;;;2.00;1.90;;;4.20;99.90;;;;;;6129901;28;20482;-64
2021/12/06 03:40:51;;;;;;;2.13;1.93;;;4.30;99.90;;;;;;6129639;28;20490;-64
2021/12/06 03:43:56;;;;;;;1.90;1.80;;;4.30;99.90;;;;;;6129336;28;20487;-65
2021/12/06 03:47:02;;;;;;;2.40;1.80;;;4.30;99.90;;;;;;6128845;28;20810;-64
2021/12/06 03:50:08;;;;;;;1.87;1.70;;;4.30;99.90;;;;;;6129947;29;20471;-64
2021/12/06 03:53:11;;;;;;;2.63;2.40;;;4.40;99.90;;;;;;6146154;28;20493;-64
2021/12/06 03:56:16;;;;;;;3.67;2.67;;;4.40;99.90;;;;;;6152898;28;20497;-64
2021/12/06 03:59:19;;;;;;;4.30;2.67;;;4.40;99.90;;;;;;6153358;28;20553;-64
2021/12/06 04:02:24;;;;;;;2.97;2.67;;;4.40;99.90;;;;;;6152726;28;20839;-66
2021/12/06 04:05:28;;;;;;;2.37;2.17;;;4.50;99.90;;;;;;6153377;28;20462;-65
2021/12/06 04:08:31;;;;;;;2.67;2.40;;;4.50;99.90;;;;;;6144617;28;20473;-64
2021/12/06 04:11:37;;;;;;;4.00;3.60;;;4.40;99.90;;;;;;6152829;28;20474;-62
2021/12/06 04:14:41;;;;;;;7.50;3.30;;;4.40;99.90;;;;;;6153195;28;20547;-65
2021/12/06 04:17:44;;;;;;;3.27;2.03;;;4.50;99.90;;;;;;6152166;28;20962;-66
2021/12/06 04:20:47;;;;;;;2.10;1.90;;;4.50;99.90;;;;;;6153412;28;20486;-64
2021/12/06 04:23:52;;;;;;;1.93;1.83;;;4.50;99.90;;;;;;6152650;28;20489;-64
2021/12/06 04:26:58;;;;;;;2.20;2.03;;;4.50;99.90;;;;;;6152628;28;20490;-65
2021/12/06 04:30:01;;;;;;;4.47;2.90;;;4.60;99.90;;;;;;6151833;28;20470;-64
2021/12/06 04:33:05;;;;;;;4.30;2.50;;;4.60;99.90;;;;;;6152869;28;20475;-62
2021/12/06 04:36:09;;;;;;;2.93;2.23;;;4.60;99.90;;;;;;6152114;28;20489;-65
2021/12/06 04:39:14;;;;;;;4.47;2.60;;;4.60;99.90;;;;;;6152256;28;21020;-63
2021/12/06 04:42:20;;;;;;;2.10;1.80;;;4.60;99.90;;;;;;6152430;28;20470;-62
2021/12/06 04:45:25;;;;;;;2.03;1.70;;;4.60;99.90;;;;;;6152159;28;20983;-62
2021/12/06 04:48:28;;;;;;;1.60;1.50;;;4.60;99.90;;;;;;6152319;28;20552;-63
2021/12/06 04:51:32;;;;;;;2.83;1.70;;;4.60;99.90;;;;;;6152279;28;20478;-65
2021/12/06 04:54:38;;;;;;;3.13;2.07;;;4.60;99.90;;;;;;6151910;28;20475;-65
2021/12/06 04:57:47;;;;;;;2.80;2.60;;;4.60;99.90;;;;;;6151315;28;20857;-63
2021/12/06 05:00:53;;;;;;;1.40;1.30;;;4.60;99.90;;;;;;6152092;28;20475;-66
2021/12/06 05:04:01;;;;;;;3.00;2.03;;;4.60;99.90;;;;;;6152208;28;20604;-65
2021/12/06 05:07:08;;;;;;;1.60;1.50;;;4.70;99.90;;;;;;6152461;28;20471;-65
2021/12/06 05:10:12;;;;;;;1.30;1.30;;;4.70;99.90;;;;;;6151893;28;20488;-62
2021/12/06 05:13:17;;;;;;;1.60;1.50;;;4.70;99.90;;;;;;6147471;28;20482;-63
2021/12/06 05:16:21;;;;;;;1.33;1.23;;;4.70;99.90;;;;;;6151379;28;20813;-63
2021/12/06 05:19:25;;;;;;;2.13;2.00;;;4.80;99.80;;;;;;6133881;28;20479;-63
2021/12/06 05:22:29;;;;;;;3.80;1.40;;;4.80;99.80;;;;;;6128002;28;21002;-64
2021/12/06 05:25:33;;;;;;;1.57;1.47;;;4.80;99.90;;;;;;6127544;28;20479;-63
2021/12/06 05:28:42;;;;;;;3.00;2.20;;;4.80;99.90;;;;;;6127217;28;20475;-63
2021/12/06 05:31:54;;;;;;;2.40;2.20;;;4.90;99.90;;;;;;6127390;28;20476;-65
2021/12/06 05:35:03;;;;;;;4.07;3.37;;;4.90;99.90;;;;;;6127748;28;20866;-64
2021/12/06 05:38:06;;;;;;;3.17;2.87;;;4.90;99.90;;;;;;6126831;28;20979;-65
2021/12/06 05:41:10;;;;;;;3.60;3.30;;;4.90;99.90;;;;;;6126560;28;20807;-65
2021/12/06 05:44:14;;;;;;;2.53;2.30;;;4.80;99.90;;;;;;6127721;28;20793;-64
2021/12/06 05:47:18;;;;;;;4.70;4.20;;;4.80;99.90;;;;;;6127165;28;20467;-64
2021/12/06 05:50:22;;;;;;;4.80;4.40;;;4.80;99.90;;;;;;6127610;28;20578;-61
2021/12/06 05:53:26;;;;;;;5.97;5.47;;;4.70;99.90;;;;;;6145684;28;20459;-63
2021/12/06 05:56:30;;;;;;;7.43;5.40;;;4.70;99.90;;;;;;6151229;28;20506;-63
2021/12/06 05:59:35;;;;;;;6.70;4.80;;;4.70;99.90;;;;;;6150848;28;20471;-62
2021/12/06 06:02:38;;;;;;;6.30;5.73;;;4.60;99.90;;;;;;6151010;28;20548;-63
2021/12/06 06:05:41;;;;;;;9.63;7.20;;;4.50;99.90;;;;;;6147904;28;20485;-62
2021/12/06 06:08:44;;;;;;;8.90;7.40;;;4.40;99.90;;;;;;6135715;28;20986;-63
2021/12/06 06:11:50;;;;;;;9.20;7.10;;;4.40;99.90;;;;;;6126698;28;20475;-65
2021/12/06 06:14:54;;;;;;;9.40;7.63;;;4.40;99.90;;;;;;6126170;28;20979;-63
2021/12/06 06:17:58;;;;;;;6.30;5.70;;;4.40;99.90;;;;;;6140099;28;20474;-62
2021/12/06 06:21:02;;;;;;;7.27;6.10;;;4.40;99.90;;;;;;6150710;28;20470;-64
2021/12/06 06:24:05;;;;;;;6.30;5.80;;;4.40;99.90;;;;;;6150692;28;20477;-63
2021/12/06 06:27:09;;;;;;;9.90;7.80;;;4.40;99.90;;;;;;6150131;28;20488;-64
2021/12/06 06:30:15;;;;;;;11.33;9.70;;;4.30;99.90;;;;;;6149955;28;20477;-65
2021/12/06 06:33:19;;;;;;;9.57;8.57;;;4.30;99.90;;;;;;6148916;28;20478;-65
2021/12/06 06:36:22;;;;;;;10.03;8.70;;;4.30;99.90;;;;;;6148544;28;20810;-64
2021/12/06 06:39:25;;;;;;;10.47;8.93;;;4.30;99.90;;;;;;6148372;28;20481;-64
2021/12/06 06:42:28;;;;;;;8.87;7.73;;;4.30;99.90;;;;;;6149332;28;20482;-65
2021/12/06 06:45:33;;;;;;;14.13;8.70;;;4.30;99.90;;;;;;6149506;28;20490;-64
2021/12/06 06:48:37;;;;;;;65.00;13.40;;;4.30;99.90;;;;;;6150130;28;20470;-64
2021/12/06 06:51:41;;;;;;;9.47;7.63;;;4.40;99.90;;;;;;6149315;28;20478;-64
2021/12/06 06:54:45;;;;;;;10.20;9.20;;;4.40;99.90;;;;;;6149736;28;20471;-64
2021/12/06 06:57:50;;;;;;;8.60;7.70;;;4.40;99.90;;;;;;6135980;28;20491;-64
2021/12/06 07:00:54;;;;;;;9.70;8.33;;;4.50;99.90;;;;;;6126406;28;20569;-64
2021/12/06 07:03:58;;;;;;;19.10;12.60;;;4.60;99.90;;;;;;6126169;28;20476;-64
2021/12/06 07:07:01;;;;;;;13.93;10.47;;;4.60;99.90;;;;;;6125897;28;20476;-64
2021/12/06 07:10:05;;;;;;;7.90;6.90;;;4.70;99.90;;;;;;6126314;29;20471;-64
2021/12/06 07:13:11;;;;;;;6.50;5.30;;;4.80;99.90;;;;;;6125823;28;20486;-64
2021/12/06 07:16:18;;;;;;;8.93;5.83;;;4.80;99.90;;;;;;6126285;28;20480;-64
2021/12/06 07:19:22;;;;;;;5.13;4.63;;;4.70;99.90;;;;;;6079157;28;20485;-65
2021/12/06 07:22:32;;;;;;;6.97;6.00;;;4.80;99.90;;;;;;6052136;29;20486;-65
2021/12/06 07:25:35;;;;;;;5.93;5.40;;;4.80;99.90;;;;;;6074789;28;20481;-63
2021/12/06 07:28:39;;;;;;;7.87;6.60;;;4.80;99.90;;;;;;6059475;29;20485;-63
2021/12/06 07:31:44;;;;;;;8.33;7.50;;;4.90;99.90;;;;;;6075740;28;20487;-62
2021/12/06 07:34:48;;;;;;;8.17;6.83;;;5.00;99.90;;;;;;6058101;29;20986;-62
2021/12/06 07:37:51;;;;;;;7.67;6.97;;;5.00;99.90;;;;;;6076855;28;21031;-62
2021/12/06 07:40:56;;;;;;;6.07;5.57;;;5.10;99.90;;;;;;6057455;28;20488;-62
2021/12/06 07:44:00;;;;;;;7.40;5.97;;;5.10;99.90;;;;;;6078049;28;20478;-65
2021/12/06 07:47:05;;;;;;;10.30;6.20;;;5.20;99.90;;;;;;6055792;28;20624;-64
2021/12/06 07:50:11;;;;;;;23.40;7.80;;;5.30;99.90;;;;;;6056611;28;20459;-64
2021/12/06 07:53:14;;;;;;;8.00;4.60;;;5.40;99.90;;;;;;6096344;28;20452;-63
2021/12/06 07:56:19;;;;;;;4.60;4.07;;;5.60;99.90;;;;;;6105002;28;20967;-63
2021/12/06 07:59:22;;;;;;;11.13;4.83;;;5.60;99.90;;;;;;6126481;28;20483;-63
2021/12/06 08:02:27;;;;;;;8.20;6.07;;;5.60;99.90;;;;;;6126591;28;20456;-63
2021/12/06 08:05:31;;;;;;;5.90;4.93;;;5.70;99.90;;;;;;6129208;28;20542;-64
2021/12/06 08:08:34;;;;;;;6.17;5.57;;;5.90;99.90;;;;;;6130124;28;20471;-64
2021/12/06 08:11:38;;;;;;;4.27;3.87;;;6.00;99.90;;;;;;6129233;28;20478;-64
2021/12/06 08:14:41;;;;;;;13.67;3.87;;;6.10;99.90;;;;;;6129315;28;20482;-64
2021/12/06 08:17:46;;;;;;;14.30;5.57;;;6.20;99.90;;;;;;6141159;28;20478;-64
2021/12/06 08:20:50;;;;;;;4.10;3.70;;;6.30;99.80;;;;;;6153399;28;20482;-64
2021/12/06 08:23:55;;;;;;;5.43;4.80;;;6.40;99.90;;;;;;6153590;28;20474;-63
2021/12/06 08:26:58;;;;;;;3.63;3.33;;;6.50;99.80;;;;;;6152976;28;20970;-65
2021/12/06 08:30:03;;;;;;;5.20;3.80;;;6.70;99.60;;;;;;6153453;28;20485;-64
2021/12/06 08:33:09;;;;;;;5.83;3.60;;;6.90;99.40;;;;;;6149785;28;20467;-66
2021/12/06 08:36:13;;;;;;;3.40;3.10;;;7.10;98.50;;;;;;6144313;28;20498;-66
2021/12/06 08:39:16;;;;;;;2.67;2.47;;;7.20;97.70;;;;;;6164394;28;20471;-64
2021/12/06 08:42:19;;;;;;;4.70;2.87;;;7.40;97.00;;;;;;6265285;28;20466;-65
2021/12/06 08:45:23;;;;;;;2.43;2.03;;;7.70;96.80;;;;;;6252745;28;20459;-66
2021/12/06 08:48:31;;;;;;;2.30;2.00;;;7.90;95.70;;;;;;6252941;28;20806;-66
2021/12/06 08:51:37;;;;;;;2.63;2.40;;;8.00;94.00;;;;;;6256711;28;20477;-67
2021/12/06 08:54:43;;;;;;;2.50;2.20;;;8.20;94.10;;;;;;6271734;28;20467;-66
2021/12/06 08:57:47;;;;;;;4.17;2.30;;;8.30;93.90;;;;;;6253747;28;20475;-66
2021/12/06 09:00:51;;;;;;;3.07;2.10;;;8.20;92.70;;;;;;6253564;28;20475;-65
2021/12/06 09:03:56;;;;;;;1.40;1.30;;;8.20;91.90;;;;;;6253702;28;20565;-64
2021/12/06 09:06:59;;;;;;;2.60;1.77;;;8.20;90.50;;;;;;6252660;28;20471;-64
2021/12/06 09:10:04;;;;;;;5.20;1.43;;;8.10;90.70;;;;;;6252056;28;20475;-65
2021/12/06 09:13:07;;;;;;;1.27;1.10;;;8.00;90.70;;;;;;6251957;28;20490;-65
2021/12/06 09:16:13;;;;;;;2.73;1.23;;;7.70;90.80;;;;;;6252053;28;20481;-63
2021/12/06 09:19:18;;;;;;;1.77;1.50;;;7.50;90.20;;;;;;6253187;28;20520;-64
2021/12/06 09:22:22;;;;;;;2.70;1.40;;;7.20;89.80;;;;;;6252305;28;20462;-65
2021/12/06 09:25:29;;;;;;;1.80;1.53;;;7.10;90.30;;;;;;6251254;28;20474;-63
2021/12/06 09:28:33;;;;;;;1.00;1.00;;;6.90;91.00;;;;;;6252278;28;20475;-63
2021/12/06 09:31:36;;;;;;;4.67;2.70;;;6.80;90.90;;;;;;6251422;28;20471;-64
2021/12/06 09:34:44;;;;;;;2.33;1.87;;;6.70;90.20;;;;;;6251956;28;20989;-65
2021/12/06 09:37:47;;;;;;;3.93;2.07;;;6.60;90.80;;;;;;6252472;28;20474;-65
2021/12/06 09:40:53;;;;;;;23.77;4.20;;;6.50;90.60;;;;;;6251920;28;20498;-65
2021/12/06 09:43:59;;;;;;;1.40;1.30;;;6.40;91.10;;;;;;6251967;28;20475;-66
2021/12/06 09:47:03;;;;;;;3.60;1.40;;;6.40;91.50;;;;;;6251025;28;20490;-64
2021/12/06 09:50:09;;;;;;;4.30;2.60;;;6.40;90.90;;;;;;6251631;28;20474;-65
2021/12/06 09:53:18;;;;;;;2.20;1.67;;;6.40;90.90;;;;;;6140619;28;20455;-65
2021/12/06 09:56:24;;;;;;;2.17;1.30;;;6.40;91.10;;;;;;6145602;28;20474;-65
2021/12/06 09:59:29;;;;;;;3.00;1.53;;;6.40;90.80;;;;;;6129592;29;22108;-65
2021/12/06 10:02:32;;;;;;;1.67;1.57;;;6.50;91.10;;;;;;6148027;28;20480;-64
2021/12/06 10:05:38;;;;;;;2.60;1.47;;;6.50;91.10;;;;;;6130445;29;20482;-65
2021/12/06 10:08:44;;;;;;;2.00;1.20;;;6.50;91.10;;;;;;6146354;28;20483;-65
2021/12/06 10:11:48;;;;;;;1.87;1.30;;;6.60;90.80;;;;;;6131844;29;20807;-64
2021/12/06 10:14:53;;;;;;;1.60;1.50;;;6.70;90.60;;;;;;6131537;28;20489;-65
2021/12/06 10:18:00;;;;;;;1.37;1.10;;;6.70;90.10;;;;;;6122630;28;20819;-64
2021/12/06 10:21:06;;;;;;;2.23;1.30;;;6.80;89.40;;;;;;6150521;28;20508;-63
2021/12/06 10:24:11;;;;;;;2.00;0.90;;;6.70;87.20;;;;;;6128628;28;20479;-64
2021/12/06 10:27:15;;;;;;;1.73;0.90;;;6.80;87.10;;;;;;6127411;28;20948;-65
2021/12/06 10:30:19;;;;;;;3.77;1.17;;;6.80;87.20;;;;;;6126859;28;20483;-65
2021/12/06 10:33:24;;;;;;;1.30;0.80;;;6.80;86.10;;;;;;6108341;28;20469;-63
2021/12/06 10:36:29;;;;;;;1.60;1.27;;;6.90;86.90;;;;;;6112950;28;20546;-65
2021/12/06 10:39:37;;;;;;;1.30;1.17;;;6.90;85.80;;;;;;6126390;28;20517;-62
2021/12/06 10:42:42;;;;;;;1.67;1.10;;;7.00;84.90;;;;;;6126183;28;20495;-65
2021/12/06 10:45:48;;;;;;;3.43;1.77;;;7.10;86.80;;;;;;6126301;28;20480;-64
2021/12/06 10:48:54;;;;;;;2.10;1.50;;;7.10;86.10;;;;;;6126166;28;20467;-64
2021/12/06 10:51:59;;;;;;;0.70;0.70;;;7.20;84.00;;;;;;6127421;28;20483;-64
2021/12/06 10:55:02;;;;;;;1.57;1.20;;;7.20;83.10;;;;;;6127821;28;20479;-64
2021/12/06 10:58:13;;;;;;;2.67;1.30;;;7.30;82.20;;;;;;6125782;28;20491;-65
2021/12/06 11:01:19;;;;;;;1.23;1.13;;;7.50;84.20;;;;;;6126296;28;20472;-66
2021/12/06 11:04:25;;;;;;;3.17;1.53;;;7.70;79.80;;;;;;6127298;28;20467;-65
2021/12/06 11:07:34;;;;;;;0.90;0.80;;;8.10;77.50;;;;;;6124997;28;20476;-65
2021/12/06 11:10:42;;;;;;;1.53;0.70;;;10.40;71.60;;;;;;6125087;28;20472;-65
2021/12/06 11:13:48;;;;;;;0.80;0.63;;;14.60;58.20;;;;;;6124732;28;20476;-67
2021/12/06 11:16:54;;;;;;;0.80;0.80;;;16.10;46.60;;;;;;6107802;28;20494;-65
2021/12/06 11:19:57;;;;;;;1.70;1.07;;;14.70;46.00;;;;;;6146563;28;20483;-65
2021/12/06 11:23:07;;;;;;;2.83;0.77;;;13.50;47.50;;;;;;6147833;28;20475;-63
2021/12/06 11:26:11;;;;;;;2.30;0.70;;;13.60;49.80;;;;;;6147271;28;20463;-65
2021/12/06 11:29:18;;;;;;;1.27;1.03;;;17.50;45.30;;;;;;6146931;28;20454;-63
2021/12/06 11:32:24;;;;;;;6.30;2.20;;;21.60;37.50;;;;;;6147483;28;20438;-65
2021/12/06 11:35:28;;;;;;;1.90;0.80;;;25.20;31.00;;;;;;6144102;28;20242;-64
2021/12/06 11:38:32;;;;;;;1.47;0.80;;;27.50;26.40;;;;;;6150762;28;20249;-65
2021/12/06 11:41:36;;;;;;;2.00;0.80;;;28.20;24.30;;;;;;6155517;28;20237;-65
2021/12/06 11:44:42;;;;;;;3.07;0.77;;;29.90;23.10;;;;;;6155556;28;20238;-64
2021/12/06 11:47:45;;;;;;;1.50;0.87;;;29.90;21.30;;;;;;6133886;28;20369;-64
2021/12/06 11:50:52;;;;;;;1.20;0.70;;;30.10;20.60;;;;;;6131000;28;20243;-64
2021/12/06 11:53:59;;;;;;;1.33;0.77;;;28.50;20.30;;;;;;6152957;28;20690;-65
2021/12/06 11:57:11;;;;;;;1.80;0.97;;;25.40;22.60;;;;;;6153528;28;20239;-64
2021/12/06 12:00:18;;;;;;;1.60;0.77;;;23.10;24.50;;;;;;6153457;28;20239;-64
2021/12/06 12:03:30;;;;;;;1.90;1.13;;;23.40;24.80;;;;;;6153326;28;20230;-64
2021/12/06 12:06:38;;;;;;;2.80;0.90;;;25.10;23.40;;;;;;6153614;28;20239;-66
2021/12/06 12:09:43;;;;;;;1.10;0.90;;;26.20;22.30;;;;;;6153019;28;20231;-64
2021/12/06 12:12:54;;;;;;;1.60;0.70;;;28.20;21.50;;;;;;6153095;28;20238;-66
2021/12/06 12:15:58;;;;;;;1.43;0.70;;;28.70;20.60;;;;;;6130494;28;20686;-65
2021/12/06 12:19:02;;;;;;;1.67;0.80;;;29.20;20.00;;;;;;6150548;28;20241;-66
2021/12/06 12:22:05;;;;;;;4.80;0.50;;;28.90;19.90;;;;;;6154861;28;20231;-64
2021/12/06 12:25:19;;;;;;;2.27;1.00;;;28.30;19.40;;;;;;6153123;28;20238;-65
2021/12/06 12:28:26;;;;;;;1.53;0.63;;;28.70;19.90;;;;;;6153382;28;20242;-64
2021/12/06 12:31:30;;;;;;;2.23;0.60;;;28.60;19.60;;;;;;6152931;28;20714;-63
2021/12/06 12:34:38;;;;;;;1.40;0.70;;;28.30;19.30;;;;;;6155231;28;20245;-65
2021/12/06 12:37:43;;;;;;;2.50;1.00;;;28.10;19.60;;;;;;6152596;28;20238;-67
2021/12/06 12:40:50;;;;;;;1.03;0.40;;;27.70;19.40;;;;;;6149984;28;20235;-67
2021/12/06 12:44:01;;;;;;;1.13;0.60;;;28.40;19.20;;;;;;6144450;28;20227;-69
2021/12/06 12:47:14;;;;;;;1.47;0.80;;;29.00;19.20;;;;;;6130306;28;20231;-69
2021/12/06 12:50:19;;;;;;;1.60;0.80;;;29.00;18.80;;;;;;6127152;28;20227;-68
2021/12/06 12:53:22;;;;;;;2.13;0.57;;;29.50;18.60;;;;;;6130379;28;20207;-67
2021/12/06 12:56:30;;;;;;;2.07;0.97;;;29.80;18.40;;;;;;6128291;28;20287;-64
2021/12/06 12:59:36;;;;;;;2.03;0.97;;;28.30;18.80;;;;;;6128641;28;20231;-64
2021/12/06 13:02:39;;;;;;;2.97;0.97;;;27.10;19.70;;;;;;6127916;28;20243;-64
2021/12/06 13:05:42;;;;;;;3.77;1.00;;;26.00;20.20;;;;;;6128042;28;20231;-66
2021/12/06 13:08:46;;;;;;;1.23;0.90;;;26.70;19.70;;;;;;6127989;28;20235;-67
2021/12/06 13:12:02;;;;;;;2.73;2.53;;;26.00;20.20;;;;;;6128542;28;20276;-67
2021/12/06 13:15:16;;;;;;;2.03;0.60;;;25.00;20.60;;;;;;6206854;28;20235;-67
2021/12/06 13:18:50;;;;;;;1.73;0.63;;;25.10;20.30;;;;;;6171797;28;20278;-67
2021/12/06 13:22:07;;;;;;;4.03;1.40;;;23.60;21.40;;;;;;6127494;28;20668;-67
2021/12/06 13:25:11;;;;;;;1.57;0.67;;;22.00;22.30;;;;;;6127733;28;20534;-67
2021/12/06 13:28:17;;;;;;;3.00;0.73;;;21.60;22.50;;;;;;6127278;28;20235;-64
2021/12/06 13:31:25;;;;;;;3.47;0.70;;;21.80;23.00;;;;;;6127682;28;20224;-65
2021/12/06 13:34:30;;;;;;;1.97;0.70;;;21.90;22.50;;;;;;6127754;28;20232;-67
2021/12/06 13:37:33;;;;;;;1.70;0.67;;;21.30;22.40;;;;;;6127349;28;20258;-68
2021/12/06 13:40:41;;;;;;;0.97;0.47;;;21.10;23.20;;;;;;6127310;28;20236;-68
2021/12/06 13:43:51;;;;;;;1.40;0.70;;;21.80;23.10;;;;;;6128537;28;20224;-68
2021/12/06 13:46:54;;;;;;;3.10;1.03;;;22.50;22.70;;;;;;6128074;28;20236;-68
2021/12/06 13:50:01;;;;;;;1.90;0.97;;;23.60;21.90;;;;;;6127660;28;20309;-68
2021/12/06 13:53:04;;;;;;;1.27;0.50;;;23.80;21.80;;;;;;6142866;28;20227;-68
2021/12/06 13:56:09;;;;;;;1.77;0.90;;;23.90;21.80;;;;;;6151439;28;20242;-68
2021/12/06 13:59:15;;;;;;;0.80;0.60;;;23.60;21.50;;;;;;6151180;28;20227;-68
2021/12/06 14:02:24;;;;;;;1.33;0.70;;;22.90;21.60;;;;;;6150862;28;20521;-68
2021/12/06 14:05:29;;;;;;;1.03;0.60;;;22.50;22.10;;;;;;6151229;28;20290;-68
2021/12/06 14:08:32;;;;;;;2.10;0.90;;;21.80;22.30;;;;;;6150519;28;20241;-68
2021/12/06 14:11:36;;;;;;;2.20;0.70;;;21.00;23.10;;;;;;6150740;28;20313;-69
2021/12/06 14:14:43;;;;;;;5.63;1.90;;;20.20;24.00;;;;;;6199940;28;20554;-68
2021/12/06 14:17:47;;;;;;;1.27;0.70;;;19.20;24.80;;;;;;6223067;28;20311;-68
2021/12/06 14:20:53;;;;;;;3.20;1.00;;;18.10;25.40;;;;;;6250411;28;20475;-67
2021/12/06 14:23:58;;;;;;;1.70;0.73;;;17.20;26.40;;;;;;6250800;28;20477;-67
2021/12/06 14:27:03;;;;;;;6.17;0.93;;;15.90;27.10;;;;;;6249968;28;20471;-68
2021/12/06 14:30:11;;;;;;;1.43;1.00;;;14.30;28.40;;;;;;6195101;28;20974;-67
2021/12/06 14:33:14;;;;;;;0.93;0.73;;;13.00;30.10;;;;;;6126296;28;20483;-66
2021/12/06 14:36:23;;;;;;;1.10;0.63;;;11.90;31.70;;;;;;6126437;28;20488;-66
2021/12/06 14:39:47;;;;;;;1.70;1.60;;;11.10;33.20;;;;;;6126952;28;20476;-67
2021/12/06 14:42:51;;;;;;;2.57;0.90;;;10.30;34.90;;;;;;6128292;28;20475;-67
2021/12/06 14:46:01;;;;;;;1.00;0.90;;;9.80;36.90;;;;;;6126659;28;20475;-67
2021/12/06 14:49:12;;;;;;;1.97;1.20;;;9.40;38.20;;;;;;6118140;28;20974;-67
2021/12/06 14:52:21;;;;;;;1.90;0.97;;;9.10;38.70;;;;;;6135485;28;20509;-67
2021/12/06 14:55:38;;;;;;;0.97;0.70;;;8.90;39.90;;;;;;6140298;28;20483;-66
2021/12/06 14:59:02;;;;;;;3.37;1.70;;;8.50;40.20;;;;;;6125569;28;20475;-65
2021/12/06 15:02:07;;;;;;;1.97;1.07;;;8.20;41.20;;;;;;6125936;28;20494;-64
2021/12/06 15:05:12;;;;;;;1.53;1.37;;;8.10;42.10;;;;;;6125810;28;20464;-61
2021/12/06 15:08:21;;;;;;;4.03;1.53;;;7.80;42.70;;;;;;6126322;28;20880;-61
2021/12/06 15:11:26;;;;;;;1.63;1.10;;;7.70;43.40;;;;;;6126164;28;20428;-65
2021/12/06 15:14:31;;;;;;;1.73;1.37;;;7.70;43.80;;;;;;6125036;28;20455;-65
2021/12/06 15:17:35;;;;;;;1.90;1.40;;;7.60;44.30;;;;;;6152506;28;20463;-65
2021/12/06 15:20:40;;;;;;;1.80;1.17;;;7.50;44.80;;;;;;6250005;28;20942;-64
2021/12/06 15:23:48;;;;;;;1.90;1.10;;;7.40;44.90;;;;;;6249400;28;20474;-65
2021/12/06 15:26:55;;;;;;;1.83;1.50;;;7.40;45.20;;;;;;6249988;28;20474;-64
2021/12/06 15:30:05;;;;;;;2.43;1.43;;;7.30;45.90;;;;;;6250334;28;20471;-64
2021/12/06 15:33:13;;;;;;;3.47;1.93;;;7.10;46.10;;;;;;6193795;28;20481;-65
2021/12/06 15:36:20;;;;;;;8.60;7.30;;;7.00;46.70;;;;;;6150141;28;20605;-63
2021/12/06 15:39:24;;;;;;;2.37;2.17;;;7.00;46.90;;;;;;6150036;28;20482;-63
2021/12/06 15:42:28;;;;;;;4.13;3.60;;;6.90;47.70;;;;;;6150547;28;20816;-62
2021/12/06 15:45:31;;;;;;;3.00;1.93;;;6.90;48.00;;;;;;6137427;28;21055;-66
2021/12/06 15:48:39;;;;;;;3.20;1.80;;;6.90;48.50;;;;;;6125736;28;20990;-64
2021/12/06 15:51:45;;;;;;;2.30;1.73;;;6.80;48.60;;;;;;6132095;28;20962;-65
2021/12/06 15:54:59;;;;;;;4.60;1.97;;;6.70;48.90;;;;;;6150299;28;20470;-62
2021/12/06 15:58:09;;;;;;;2.70;1.70;;;6.70;48.50;;;;;;6148762;28;20486;-62
2021/12/06 16:01:13;;;;;;;2.67;1.53;;;6.60;48.90;;;;;;6148879;28;20561;-62
2021/12/06 16:04:19;;;;;;;2.40;1.93;;;6.50;49.10;;;;;;6149370;28;20785;-64
2021/12/06 16:07:27;;;;;;;2.53;1.50;;;6.50;50.00;;;;;;6136663;28;20963;-64
2021/12/06 16:10:33;;;;;;;5.30;2.23;;;6.40;49.90;;;;;;6125395;28;20472;-64
2021/12/06 16:13:38;;;;;;;4.80;2.90;;;6.30;50.20;;;;;;6125532;28;20471;-65
2021/12/06 16:16:44;;;;;;;4.70;4.20;;;6.20;51.00;;;;;;6128747;28;20489;-62